Time;durP1;ratioP1;P1;durP2;ratioP2;P2;SDS_P1;SDS_P2;PMS_P1;PMS_P2;Temp;Humidity;BMP_temperature;BMP_pressure;BME280_temperature;BME280_humidity;BME280_pressure;Samples;Min_cycle;Max_cycle;Signal;HPM_P1;HPM_P2
2023/08/03 00:00:14;;;;;;;3.73;2.40;;;15.80;99.90;;;;;;4961943;29;20464;-61
2023/08/03 00:02:41;;;;;;;5.20;2.40;;;15.90;99.90;;;;;;4962508;29;20480;-60
2023/08/03 00:05:09;;;;;;;4.90;2.83;;;15.80;1.00;;;;;;4962221;29;20758;-59
2023/08/03 00:07:36;;;;;;;5.07;2.40;;;15.90;1.00;;;;;;4961534;29;20441;-61
2023/08/03 00:10:04;;;;;;;3.50;2.10;;;15.90;99.90;;;;;;4961833;28;20498;-58
2023/08/03 00:12:31;;;;;;;5.97;2.80;;;15.90;99.90;;;;;;4961517;28;20451;-57
2023/08/03 00:14:58;;;;;;;10.10;2.40;;;15.90;1.00;;;;;;4961907;29;20462;-57
2023/08/03 00:17:27;;;;;;;5.30;2.13;;;15.80;1.00;;;;;;4962000;29;20894;-59
2023/08/03 00:19:54;;;;;;;4.57;2.30;;;15.80;1.00;;;;;;4961473;29;20468;-62
2023/08/03 00:22:21;;;;;;;3.90;2.17;;;15.70;99.90;;;;;;4961577;29;20466;-62
2023/08/03 00:24:49;;;;;;;5.27;2.00;;;15.70;99.90;;;;;;4961647;29;20462;-58
2023/08/03 00:27:17;;;;;;;6.50;2.87;;;15.70;1.00;;;;;;4961670;29;20506;-60
2023/08/03 00:29:44;;;;;;;3.90;2.10;;;15.60;99.90;;;;;;4961666;29;20504;-60
2023/08/03 00:32:11;;;;;;;3.70;2.10;;;15.60;99.90;;;;;;4961469;29;20467;-58
2023/08/03 00:34:39;;;;;;;4.13;2.63;;;15.60;99.90;;;;;;4961561;29;20448;-58
2023/08/03 00:37:07;;;;;;;4.80;2.50;;;15.50;10.00;;;;;;4961194;29;20462;-66
2023/08/03 00:39:34;;;;;;;3.40;2.23;;;15.50;99.90;;;;;;4961575;29;20728;-63
2023/08/03 00:42:01;;;;;;;3.60;2.30;;;15.50;99.90;;;;;;4961743;29;20505;-59
2023/08/03 00:44:28;;;;;;;3.87;2.40;;;15.50;99.90;;;;;;4961786;29;20469;-59
2023/08/03 00:46:55;;;;;;;2.80;2.50;;;15.50;99.90;;;;;;4961430;29;20820;-65
2023/08/03 00:49:27;;;;;;;3.50;2.13;;;15.50;99.90;;;;;;4961320;29;20467;-60
2023/08/03 00:51:56;;;;;;;3.83;2.10;;;15.50;99.90;;;;;;4960891;29;20497;-62
2023/08/03 00:54:23;;;;;;;3.60;2.10;;;15.50;98.10;;;;;;4960324;29;20433;-59
2023/08/03 00:56:50;;;;;;;3.30;2.10;;;15.60;99.90;;;;;;4960844;28;20469;-58
2023/08/03 00:59:17;;;;;;;2.80;2.17;;;15.50;99.90;;;;;;4961437;29;20832;-61
2023/08/03 01:01:45;;;;;;;4.83;2.03;;;15.60;50.40;;;;;;4960582;29;20462;-60
2023/08/03 01:04:12;;;;;;;4.70;2.80;;;15.60;27.60;;;;;;4960935;29;20520;-57
2023/08/03 01:06:39;;;;;;;2.83;2.00;;;15.60;99.90;;;;;;4960617;29;20486;-61
2023/08/03 01:09:08;;;;;;;5.13;2.30;;;15.50;99.90;;;;;;4960948;29;20463;-58
2023/08/03 01:11:35;;;;;;;2.97;1.80;;;15.60;99.90;;;;;;4960954;29;20502;-59
2023/08/03 01:14:03;;;;;;;3.90;2.27;;;15.50;99.90;;;;;;4960544;29;20473;-58
2023/08/03 01:16:42;;;;;;;3.20;1.60;;;15.60;99.90;;;;;;4960688;28;20471;-61
2023/08/03 01:19:13;;;;;;;4.87;2.00;;;15.60;99.90;;;;;;4961085;28;20915;-61
2023/08/03 01:21:41;;;;;;;5.30;2.33;;;15.60;99.90;;;;;;4960365;29;20491;-61
2023/08/03 01:24:10;;;;;;;6.07;2.70;;;15.60;99.90;;;;;;4960443;29;20467;-63
2023/08/03 01:26:37;;;;;;;2.77;1.70;;;15.60;99.90;;;;;;4960571;29;20473;-62
2023/08/03 01:29:16;;;;;;;3.60;2.20;;;15.50;99.90;;;;;;4960788;29;20753;-62
2023/08/03 01:31:44;;;;;;;4.73;1.70;;;15.50;99.90;;;;;;4960116;28;20493;-59
2023/08/03 01:34:13;;;;;;;5.57;3.07;;;15.60;99.90;;;;;;4960283;29;20468;-60
2023/08/03 01:36:40;;;;;;;3.50;2.20;;;15.60;99.90;;;;;;4978595;28;20891;-63
2023/08/03 01:39:08;;;;;;;5.40;2.40;;;15.60;99.90;;;;;;4980105;28;20437;-61
2023/08/03 01:41:37;;;;;;;5.23;2.37;;;15.60;99.90;;;;;;4979423;28;20886;-57
2023/08/03 01:44:27;;;;;;;3.57;2.33;;;15.60;99.90;;;;;;4979320;28;20465;-61
2023/08/03 01:46:55;;;;;;;5.20;2.90;;;15.50;99.90;;;;;;4975610;28;20903;-58
2023/08/03 01:49:23;;;;;;;4.60;2.20;;;15.50;99.90;;;;;;4979854;28;20464;-61
2023/08/03 01:51:51;;;;;;;3.70;2.23;;;15.50;99.90;;;;;;4978908;28;20505;-63
2023/08/03 01:54:18;;;;;;;3.03;2.10;;;15.50;99.90;;;;;;4978946;28;20476;-64
2023/08/03 01:56:46;;;;;;;4.33;2.57;;;15.50;99.90;;;;;;4979393;28;20823;-61
2023/08/03 01:59:14;;;;;;;6.37;3.10;;;15.60;99.90;;;;;;4979069;28;20474;-62
2023/08/03 02:01:41;;;;;;;3.73;2.30;;;15.60;99.90;;;;;;4978469;28;20432;-63
2023/08/03 02:04:08;;;;;;;4.20;2.20;;;15.60;99.90;;;;;;4978935;28;20556;-62
2023/08/03 02:06:36;;;;;;;4.60;2.50;;;15.60;99.90;;;;;;4979339;28;20454;-62
2023/08/03 02:09:04;;;;;;;5.03;2.77;;;15.60;99.90;;;;;;4978350;28;20447;-58
2023/08/03 02:11:31;;;;;;;6.00;2.47;;;15.60;99.90;;;;;;4979405;28;20530;-65
2023/08/03 02:13:59;;;;;;;7.33;3.20;;;15.60;99.90;;;;;;4979050;28;20883;-58
2023/08/03 02:16:26;;;;;;;8.37;2.87;;;15.50;99.90;;;;;;4978933;28;20474;-64
2023/08/03 02:18:54;;;;;;;4.33;2.60;;;15.50;99.90;;;;;;4979310;28;20508;-60
2023/08/03 02:21:21;;;;;;;3.97;2.37;;;15.50;99.90;;;;;;4979327;28;20469;-65
2023/08/03 02:23:48;;;;;;;4.13;2.70;;;15.50;99.90;;;;;;4978906;28;20763;-59
2023/08/03 02:26:16;;;;;;;3.70;2.70;;;15.50;99.90;;;;;;4978895;28;20491;-60
2023/08/03 02:28:43;;;;;;;4.97;2.97;;;15.50;99.90;;;;;;4978813;28;20467;-62
2023/08/03 02:31:11;;;;;;;5.57;2.63;;;15.50;99.90;;;;;;4978876;28;20493;-62
2023/08/03 02:33:38;;;;;;;3.90;2.67;;;15.50;99.90;;;;;;4978014;28;20466;-62
2023/08/03 02:36:05;;;;;;;3.77;2.67;;;15.50;99.90;;;;;;4964494;28;20433;-61
2023/08/03 02:38:33;;;;;;;4.07;2.70;;;15.50;99.90;;;;;;4959181;28;20890;-63
2023/08/03 02:41:00;;;;;;;9.80;2.80;;;15.50;99.90;;;;;;4959216;28;20465;-63
2023/08/03 02:43:27;;;;;;;6.40;2.80;;;15.40;99.90;;;;;;4959491;28;20437;-60
2023/08/03 02:45:54;;;;;;;3.80;2.63;;;15.40;99.90;;;;;;4959174;28;20915;-61
2023/08/03 02:48:23;;;;;;;5.20;3.03;;;15.40;99.90;;;;;;4959178;28;20958;-64
2023/08/03 02:50:50;;;;;;;7.13;3.03;;;15.40;99.90;;;;;;4958862;28;20499;-61
2023/08/03 02:53:17;;;;;;;5.47;2.97;;;15.40;99.90;;;;;;4958510;28;20867;-64
2023/08/03 02:55:44;;;;;;;8.47;3.00;;;15.40;99.90;;;;;;4959107;28;20461;-63
2023/08/03 02:58:11;;;;;;;5.80;2.87;;;15.40;99.90;;;;;;4959065;28;20770;-60
2023/08/03 03:00:39;;;;;;;4.93;3.10;;;15.40;99.90;;;;;;4958851;28;20445;-60
2023/08/03 03:03:07;;;;;;;4.87;2.40;;;15.40;99.90;;;;;;4959413;28;20494;-62
2023/08/03 03:05:35;;;;;;;6.37;3.30;;;15.40;99.90;;;;;;4959299;28;20462;-62
2023/08/03 03:08:02;;;;;;;3.87;2.90;;;15.40;99.90;;;;;;4959211;28;20463;-62
2023/08/03 03:10:29;;;;;;;5.43;2.53;;;15.50;99.90;;;;;;4959063;28;20490;-62
2023/08/03 03:12:57;;;;;;;3.63;2.43;;;15.50;99.90;;;;;;4959145;28;20467;-62
2023/08/03 03:15:24;;;;;;;9.20;3.03;;;15.50;99.90;;;;;;4959112;28;20463;-63
2023/08/03 03:17:51;;;;;;;5.87;3.43;;;15.50;99.90;;;;;;4958620;28;20445;-63
2023/08/03 03:20:18;;;;;;;6.33;2.50;;;15.50;99.90;;;;;;4960751;28;20758;-62
2023/08/03 03:22:45;;;;;;;6.00;2.90;;;15.50;99.90;;;;;;4962734;28;20466;-62
2023/08/03 03:25:12;;;;;;;8.20;3.20;;;15.50;99.90;;;;;;4962996;28;20474;-59
2023/08/03 03:27:40;;;;;;;8.97;4.63;;;15.50;99.90;;;;;;4962582;28;20465;-62
2023/08/03 03:30:08;;;;;;;4.47;2.60;;;15.50;99.90;;;;;;4962440;28;20463;-65
2023/08/03 03:32:35;;;;;;;4.83;3.03;;;15.50;99.90;;;;;;4962724;28;20808;-61
2023/08/03 03:35:02;;;;;;;3.47;2.43;;;15.50;99.90;;;;;;4968367;28;20901;-61
2023/08/03 03:37:30;;;;;;;5.20;2.33;;;15.50;99.90;;;;;;4982345;28;20466;-60
2023/08/03 03:39:58;;;;;;;3.40;2.60;;;15.50;99.90;;;;;;4981347;28;20500;-61
2023/08/03 03:42:25;;;;;;;4.10;2.60;;;15.50;99.90;;;;;;4981971;28;20883;-64
2023/08/03 03:44:52;;;;;;;6.77;2.70;;;15.50;99.90;;;;;;4981790;28;20531;-62
2023/08/03 03:47:20;;;;;;;3.00;2.40;;;15.50;99.90;;;;;;4980845;28;20461;-60
2023/08/03 03:49:47;;;;;;;4.50;2.40;;;15.50;99.90;;;;;;4979981;28;20461;-62
2023/08/03 03:52:14;;;;;;;5.20;2.80;;;15.40;99.90;;;;;;4979892;28;20537;-60
2023/08/03 03:54:41;;;;;;;2.90;2.33;;;15.40;99.90;;;;;;4980388;28;20465;-60
2023/08/03 03:57:09;;;;;;;5.07;2.40;;;15.40;99.90;;;;;;4980143;28;20962;-62
2023/08/03 03:59:37;;;;;;;3.60;2.50;;;15.40;99.90;;;;;;4981058;28;20848;-61
2023/08/03 04:02:04;;;;;;;3.17;1.83;;;15.40;99.90;;;;;;4980802;28;20757;-61
2023/08/03 04:04:31;;;;;;;2.73;2.30;;;15.40;99.90;;;;;;4981393;28;20487;-62
2023/08/03 04:06:58;;;;;;;3.37;2.07;;;15.40;99.90;;;;;;4980930;28;20544;-60
2023/08/03 04:09:25;;;;;;;6.20;2.80;;;15.50;99.90;;;;;;4981481;28;20548;-60
2023/08/03 04:11:52;;;;;;;3.23;2.23;;;15.50;99.90;;;;;;4981271;28;20504;-63
2023/08/03 04:14:21;;;;;;;4.10;2.10;;;15.50;99.90;;;;;;4981024;28;20881;-61
2023/08/03 04:16:48;;;;;;;4.40;2.60;;;15.50;99.90;;;;;;4979775;28;20888;-63
2023/08/03 04:19:15;;;;;;;3.17;2.50;;;15.50;61.00;;;;;;4979389;28;20469;-62
2023/08/03 04:21:42;;;;;;;3.23;2.30;;;15.50;1.00;;;;;;4979131;28;20701;-61
2023/08/03 04:24:09;;;;;;;4.53;2.30;;;15.50;1.00;;;;;;4979342;28;20465;-65
2023/08/03 04:26:36;;;;;;;3.87;2.20;;;15.50;1.00;;;;;;4979028;28;20462;-60
2023/08/03 04:29:04;;;;;;;3.73;2.40;;;15.60;99.90;;;;;;4979524;28;20480;-62
2023/08/03 04:31:32;;;;;;;3.70;2.60;;;15.60;99.90;;;;;;4979740;28;20572;-61
2023/08/03 04:33:59;;;;;;;7.57;2.70;;;15.60;99.90;;;;;;4981282;28;20462;-61
2023/08/03 04:36:26;;;;;;;4.30;2.53;;;15.60;1.00;;;;;;4963457;28;20462;-63
2023/08/03 04:38:54;;;;;;;3.70;2.37;;;15.60;1.00;;;;;;4961839;28;20433;-61
2023/08/03 04:41:21;;;;;;;4.50;2.03;;;15.60;99.90;;;;;;4961751;28;20460;-62
2023/08/03 04:43:48;;;;;;;5.13;2.00;;;15.70;1.00;;;;;;4961771;28;20962;-62
2023/08/03 04:46:15;;;;;;;4.67;2.43;;;15.70;99.90;;;;;;4956395;28;20751;-60
2023/08/03 04:48:44;;;;;;;3.90;2.07;;;15.70;99.90;;;;;;4960377;29;20466;-63
2023/08/03 04:51:11;;;;;;;4.27;2.47;;;15.70;99.90;;;;;;4961024;29;20920;-62
2023/08/03 04:53:38;;;;;;;2.93;2.00;;;15.70;99.90;;;;;;4961171;28;20733;-60
2023/08/03 04:56:06;;;;;;;3.80;2.20;;;15.70;99.90;;;;;;4960746;29;20459;-61
2023/08/03 04:58:33;;;;;;;7.03;2.70;;;15.70;99.90;;;;;;4961104;28;20514;-59
2023/08/03 05:01:00;;;;;;;4.27;2.20;;;15.70;99.90;;;;;;4960833;29;20469;-63
2023/08/03 05:03:27;;;;;;;4.07;2.50;;;15.70;99.90;;;;;;4960839;28;20816;-61
2023/08/03 05:05:55;;;;;;;2.83;2.10;;;15.70;1.00;;;;;;4960741;28;20867;-62
2023/08/03 05:08:24;;;;;;;3.97;2.13;;;15.70;37.00;;;;;;4960566;29;20466;-66
2023/08/03 05:10:51;;;;;;;4.13;2.40;;;15.70;99.90;;;;;;4960549;28;20473;-61
2023/08/03 05:13:19;;;;;;;4.10;2.17;;;15.70;99.90;;;;;;4960817;28;20473;-61
2023/08/03 05:15:46;;;;;;;3.63;1.90;;;15.80;99.90;;;;;;4961016;29;20462;-60
2023/08/03 05:18:13;;;;;;;2.93;1.63;;;15.80;50.00;;;;;;4960453;28;20463;-61
2023/08/03 05:20:40;;;;;;;2.50;1.80;;;15.70;99.90;;;;;;4960750;29;20473;-61
2023/08/03 05:23:11;;;;;;;2.43;1.80;;;15.80;99.90;;;;;;4960616;28;20471;-61
2023/08/03 05:25:39;;;;;;;3.33;2.43;;;15.80;99.90;;;;;;4960548;28;20891;-62
2023/08/03 05:28:06;;;;;;;2.10;1.57;;;15.80;99.90;;;;;;4961582;28;20521;-61
2023/08/03 05:30:33;;;;;;;2.87;1.73;;;15.80;99.90;;;;;;4960247;29;20469;-61
2023/08/03 05:33:02;;;;;;;2.53;1.53;;;15.80;93.80;;;;;;4959221;29;20495;-61
2023/08/03 05:35:29;;;;;;;3.13;1.80;;;15.80;1.00;;;;;;4960338;29;20463;-59
2023/08/03 05:37:56;;;;;;;3.00;1.60;;;15.80;1.00;;;;;;4959856;29;20437;-60
2023/08/03 05:40:25;;;;;;;2.20;1.70;;;15.80;99.90;;;;;;4960360;28;20463;-62
2023/08/03 05:42:52;;;;;;;2.60;1.60;;;15.80;1.00;;;;;;4959774;28;20489;-61
2023/08/03 05:45:35;;;;;;;2.53;1.60;;;15.80;99.90;;;;;;4959997;29;20594;-59
2023/08/03 05:48:04;;;;;;;2.97;1.73;;;15.80;1.00;;;;;;4959541;28;20779;-58
2023/08/03 05:50:31;;;;;;;4.00;1.70;;;15.80;99.90;;;;;;4960011;29;20903;-60
2023/08/03 05:52:58;;;;;;;3.27;2.13;;;15.90;99.90;;;;;;4958981;28;20513;-61
2023/08/03 05:55:27;;;;;;;2.83;1.70;;;15.90;99.90;;;;;;4960163;29;20462;-60
2023/08/03 05:57:55;;;;;;;6.47;1.73;;;15.80;1.00;;;;;;4959901;29;20459;-58
2023/08/03 06:00:22;;;;;;;2.70;1.60;;;15.90;1.00;;;;;;4959730;29;20550;-59
2023/08/03 06:02:50;;;;;;;2.70;1.53;;;15.90;1.00;;;;;;4959802;29;20546;-57
2023/08/03 06:05:40;;;;;;;2.33;1.40;;;15.90;1.00;;;;;;4959848;29;20541;-60
2023/08/03 06:08:12;;;;;;;4.03;1.60;;;15.90;1.00;;;;;;4959928;29;20463;-57
2023/08/03 06:10:41;;;;;;;3.43;1.80;;;15.90;1.00;;;;;;4959890;29;20565;-58
2023/08/03 06:13:12;;;;;;;3.13;1.50;;;16.00;1.00;;;;;;4959762;29;20498;-60
2023/08/03 06:15:39;;;;;;;3.83;1.57;;;16.00;1.00;;;;;;4959456;29;20463;-61
2023/08/03 06:18:09;;;;;;;2.30;1.43;;;16.00;1.00;;;;;;4958827;28;20463;-61
2023/08/03 06:20:40;;;;;;;3.10;1.97;;;15.90;1.00;;;;;;4961584;28;20466;-59
2023/08/03 06:23:12;;;;;;;2.93;1.70;;;15.90;99.90;;;;;;4964726;28;20891;-58
2023/08/03 06:25:41;;;;;;;4.13;1.83;;;15.90;99.90;;;;;;4959507;29;20463;-61
2023/08/03 06:28:10;;;;;;;7.00;2.00;;;15.90;1.00;;;;;;4958698;28;20467;-58
2023/08/03 06:30:37;;;;;;;4.63;2.20;;;15.90;99.90;;;;;;4959287;29;20471;-59
2023/08/03 06:33:04;;;;;;;2.97;2.00;;;15.90;43.70;;;;;;4959242;29;20522;-59
2023/08/03 06:35:38;;;;;;;3.20;1.80;;;15.90;1.00;;;;;;4968707;28;20558;-62
2023/08/03 06:38:06;;;;;;;3.30;2.10;;;15.80;1.00;;;;;;4977831;28;20469;-61
2023/08/03 06:40:33;;;;;;;2.90;1.90;;;15.70;99.90;;;;;;4976616;28;20445;-60
2023/08/03 06:43:03;;;;;;;4.40;2.10;;;15.70;99.90;;;;;;4977597;28;20532;-61
2023/08/03 06:45:31;;;;;;;2.60;1.63;;;15.60;99.90;;;;;;4977638;28;20449;-61
2023/08/03 06:47:58;;;;;;;2.90;2.00;;;15.50;99.90;;;;;;4978337;28;20530;-59
2023/08/03 06:50:25;;;;;;;2.53;1.80;;;15.50;99.90;;;;;;4978210;28;20462;-60
2023/08/03 06:52:53;;;;;;;3.00;2.50;;;15.50;99.90;;;;;;4968020;28;20503;-62
2023/08/03 06:55:20;;;;;;;3.17;2.20;;;15.50;99.90;;;;;;4956437;28;20989;-59
2023/08/03 06:57:47;;;;;;;2.57;2.10;;;15.50;99.90;;;;;;4956541;28;20464;-62
2023/08/03 07:00:17;;;;;;;3.67;2.27;;;15.50;99.90;;;;;;4957015;28;20534;-62
2023/08/03 07:02:46;;;;;;;3.13;2.17;;;15.50;99.90;;;;;;4957168;28;20490;-59
2023/08/03 07:05:13;;;;;;;3.03;1.97;;;15.40;99.90;;;;;;4957392;29;20537;-59
2023/08/03 07:07:40;;;;;;;3.20;2.20;;;15.40;99.90;;;;;;4958014;28;20469;-60
2023/08/03 07:10:08;;;;;;;3.83;2.17;;;15.50;99.90;;;;;;4958830;29;20442;-58
2023/08/03 07:12:35;;;;;;;4.13;2.50;;;15.40;99.90;;;;;;4958626;29;20499;-59
2023/08/03 07:15:03;;;;;;;2.90;2.20;;;15.50;99.90;;;;;;4959101;29;20479;-59
2023/08/03 07:17:32;;;;;;;2.70;2.10;;;15.50;99.90;;;;;;4958927;29;20884;-60
2023/08/03 07:19:59;;;;;;;4.53;2.50;;;15.50;99.90;;;;;;4958487;29;20478;-59
2023/08/03 07:22:26;;;;;;;4.03;2.20;;;15.50;99.90;;;;;;4958454;28;20495;-59
2023/08/03 07:24:53;;;;;;;3.43;2.33;;;15.50;99.90;;;;;;4958815;28;20876;-63
2023/08/03 07:27:20;;;;;;;3.30;2.53;;;15.50;99.90;;;;;;4958575;28;20544;-60
2023/08/03 07:29:48;;;;;;;3.00;2.67;;;15.40;99.90;;;;;;4958792;29;20463;-62
2023/08/03 07:32:15;;;;;;;3.17;2.57;;;15.50;99.90;;;;;;4958504;29;20806;-62
2023/08/03 07:34:43;;;;;;;3.23;2.93;;;15.50;99.90;;;;;;4959816;28;20844;-60
2023/08/03 07:37:10;;;;;;;3.70;2.57;;;15.40;99.90;;;;;;4958695;28;20471;-60
2023/08/03 07:39:38;;;;;;;4.13;3.07;;;15.50;99.90;;;;;;4960432;28;20499;-59
2023/08/03 07:42:05;;;;;;;3.93;3.53;;;15.50;99.90;;;;;;4958465;28;20758;-60
2023/08/03 07:44:33;;;;;;;4.33;3.07;;;15.50;99.90;;;;;;4958644;28;20468;-60
2023/08/03 07:47:00;;;;;;;3.33;2.73;;;15.50;99.90;;;;;;4958548;28;20463;-62
2023/08/03 07:49:27;;;;;;;4.67;2.60;;;15.50;99.90;;;;;;4957760;29;20915;-61
2023/08/03 07:51:56;;;;;;;3.73;2.60;;;15.50;99.90;;;;;;4958162;29;20505;-62
2023/08/03 07:54:24;;;;;;;3.00;2.40;;;15.50;99.90;;;;;;4958241;28;20462;-60
2023/08/03 07:56:51;;;;;;;2.83;2.33;;;15.60;99.90;;;;;;4958172;28;20783;-61
2023/08/03 07:59:18;;;;;;;3.60;2.60;;;15.60;99.90;;;;;;4958466;29;20469;-59
2023/08/03 08:01:45;;;;;;;4.70;2.97;;;15.60;99.90;;;;;;4958380;28;20520;-60
2023/08/03 08:04:14;;;;;;;4.20;2.80;;;15.60;99.90;;;;;;4958136;28;20463;-61
2023/08/03 08:06:41;;;;;;;5.77;4.13;;;15.60;99.90;;;;;;4959305;28;20466;-62
2023/08/03 08:09:09;;;;;;;7.50;3.10;;;15.60;99.90;;;;;;4961832;28;20512;-61
2023/08/03 08:11:36;;;;;;;7.57;2.67;;;15.60;99.90;;;;;;4961548;29;20930;-60
2023/08/03 08:14:06;;;;;;;3.50;2.70;;;15.60;99.90;;;;;;4963485;28;20474;-60
2023/08/03 08:16:33;;;;;;;6.03;2.70;;;15.60;99.90;;;;;;4960771;29;20740;-60
2023/08/03 08:19:00;;;;;;;4.60;2.93;;;15.60;99.90;;;;;;4960496;29;20462;-61
2023/08/03 08:21:27;;;;;;;5.50;2.43;;;15.60;99.90;;;;;;4961792;29;20465;-62
2023/08/03 08:23:54;;;;;;;4.07;2.43;;;15.60;99.90;;;;;;4961773;28;20461;-60
2023/08/03 08:26:25;;;;;;;4.40;2.23;;;15.70;99.90;;;;;;4961520;29;20485;-60
2023/08/03 08:28:56;;;;;;;2.83;2.27;;;15.90;99.90;;;;;;4961993;29;20861;-60
2023/08/03 08:31:24;;;;;;;4.83;2.83;;;16.10;99.90;;;;;;4961618;29;20906;-58
2023/08/03 08:33:51;;;;;;;3.30;2.20;;;16.20;99.90;;;;;;4964589;28;20498;-59
2023/08/03 08:36:18;;;;;;;4.57;2.20;;;16.30;99.90;;;;;;4959722;29;20445;-59
2023/08/03 08:38:45;;;;;;;4.67;2.90;;;16.40;99.90;;;;;;4959708;28;20489;-60
2023/08/03 08:41:13;;;;;;;5.47;2.97;;;16.40;99.90;;;;;;4959245;29;20467;-61
2023/08/03 08:43:42;;;;;;;5.73;2.63;;;16.60;99.90;;;;;;4959453;29;20465;-62
2023/08/03 08:46:09;;;;;;;3.47;2.20;;;16.70;99.90;;;;;;4959027;28;20473;-61
2023/08/03 08:48:36;;;;;;;3.70;2.33;;;16.90;99.90;;;;;;4959336;28;20517;-60
2023/08/03 08:51:05;;;;;;;3.83;2.50;;;17.10;99.90;;;;;;4969811;28;20465;-62
2023/08/03 08:53:32;;;;;;;4.23;2.10;;;17.20;99.90;;;;;;4961415;28;20481;-59
2023/08/03 08:56:08;;;;;;;4.83;2.10;;;17.50;99.90;;;;;;4961022;29;20763;-61
2023/08/03 08:58:35;;;;;;;3.80;2.47;;;17.40;99.90;;;;;;4960848;28;20462;-61
2023/08/03 09:01:06;;;;;;;3.73;2.00;;;17.50;99.90;;;;;;4960887;29;20465;-60
2023/08/03 09:03:46;;;;;;;3.43;2.10;;;17.50;99.90;;;;;;4960983;29;20538;-61
2023/08/03 09:06:14;;;;;;;4.77;2.10;;;17.30;99.90;;;;;;4960197;29;20466;-60
2023/08/03 09:08:50;;;;;;;2.80;2.30;;;17.10;99.90;;;;;;4960482;29;20494;-63
2023/08/03 09:11:17;;;;;;;6.23;2.13;;;17.20;99.90;;;;;;4961006;28;20553;-69
2023/08/03 09:13:48;;;;;;;3.57;2.20;;;17.30;99.90;;;;;;4960645;28;20501;-59
2023/08/03 09:16:26;;;;;;;4.60;2.50;;;17.10;1.00;;;;;;4965340;28;20466;-60
2023/08/03 09:18:53;;;;;;;4.13;2.60;;;17.10;99.90;;;;;;4960156;28;20467;-64
2023/08/03 09:21:22;;;;;;;5.50;2.77;;;17.00;99.90;;;;;;4960547;29;20947;-60
2023/08/03 09:23:49;;;;;;;3.70;2.20;;;17.00;99.90;;;;;;4960829;29;20463;-61
2023/08/03 09:26:25;;;;;;;3.33;2.33;;;17.00;99.90;;;;;;4960687;28;20462;-62
2023/08/03 09:28:52;;;;;;;3.40;2.20;;;17.00;99.90;;;;;;4972270;28;20836;-60
2023/08/03 09:31:26;;;;;;;3.50;2.40;;;16.80;99.90;;;;;;4979811;28;20898;-60
2023/08/03 09:33:57;;;;;;;4.60;2.57;;;16.80;1.00;;;;;;4980004;28;20495;-60
2023/08/03 09:36:24;;;;;;;4.23;2.40;;;16.80;1.00;;;;;;4980085;28;20443;-60
2023/08/03 09:38:52;;;;;;;5.03;2.63;;;16.80;1.00;;;;;;4979415;28;20484;-61
2023/08/03 09:41:34;;;;;;;4.20;2.80;;;16.80;1.00;;;;;;4979376;28;20462;-61
2023/08/03 09:44:03;;;;;;;3.90;3.10;;;16.90;1.00;;;;;;4979933;28;20869;-60
2023/08/03 09:46:32;;;;;;;6.77;4.10;;;17.00;1.00;;;;;;4979230;28;20811;-60
2023/08/03 09:49:00;;;;;;;4.30;3.00;;;17.20;99.90;;;;;;4978597;28;20461;-60
2023/08/03 09:51:30;;;;;;;3.77;2.77;;;17.60;1.00;;;;;;4969632;28;20510;-61
2023/08/03 09:54:04;;;;;;;3.90;2.20;;;17.70;99.90;;;;;;4960162;28;20502;-59
2023/08/03 09:56:38;;;;;;;4.83;2.57;;;17.90;99.90;;;;;;4960293;29;20461;-60
2023/08/03 09:59:09;;;;;;;3.60;2.50;;;17.70;99.90;;;;;;4959733;28;20441;-60
2023/08/03 10:01:41;;;;;;;4.83;3.37;;;17.60;99.90;;;;;;4959639;28;20475;-59
2023/08/03 10:04:15;;;;;;;3.80;2.20;;;17.90;99.90;;;;;;4959963;29;20463;-60
2023/08/03 10:06:45;;;;;;;2.97;2.00;;;17.90;1.00;;;;;;4959793;29;20776;-60
2023/08/03 10:09:16;;;;;;;3.27;2.27;;;18.10;29.50;;;;;;4959482;29;20513;-59
2023/08/03 10:11:48;;;;;;;7.10;2.37;;;18.10;1.00;;;;;;4959964;29;20492;-60
2023/08/03 10:14:19;;;;;;;4.43;2.40;;;18.00;1.00;;;;;;4959685;29;20507;-60
2023/08/03 10:16:48;;;;;;;3.20;2.20;;;18.00;9.10;;;;;;4959755;28;20517;-61
2023/08/03 10:19:17;;;;;;;3.67;2.50;;;18.00;7.90;;;;;;4959139;29;20490;-59
2023/08/03 10:21:44;;;;;;;3.30;2.30;;;18.00;15.40;;;;;;4958793;28;20469;-59
2023/08/03 10:24:13;;;;;;;4.10;2.30;;;18.10;15.40;;;;;;4959399;28;20470;-60
2023/08/03 10:26:41;;;;;;;4.07;2.63;;;17.90;1.00;;;;;;4962088;28;20908;-60
2023/08/03 10:29:08;;;;;;;5.63;2.90;;;17.90;1.00;;;;;;4978389;28;20488;-60
2023/08/03 10:31:54;;;;;;;4.90;3.30;;;17.80;15.20;;;;;;4972005;28;20469;-59
2023/08/03 10:34:25;;;;;;;4.50;3.20;;;17.70;64.80;;;;;;4959432;28;20552;-60
2023/08/03 10:36:53;;;;;;;4.73;2.83;;;17.70;74.20;;;;;;4958616;29;20474;-62
2023/08/03 10:39:47;;;;;;;4.47;2.93;;;17.80;99.90;;;;;;4957819;28;20871;-59
2023/08/03 10:42:25;;;;;;;4.20;2.97;;;17.60;1.00;;;;;;4957860;29;20467;-60
2023/08/03 10:44:54;;;;;;;3.87;2.77;;;17.50;1.00;;;;;;4956412;28;20470;-59
2023/08/03 10:47:31;;;;;;;4.73;3.30;;;17.60;1.00;;;;;;4957550;29;20546;-58
2023/08/03 10:49:59;;;;;;;4.93;3.43;;;17.60;1.00;;;;;;4957434;28;20462;-59
2023/08/03 10:52:29;;;;;;;6.47;3.17;;;17.60;1.00;;;;;;4957222;29;20482;-58
2023/08/03 10:54:57;;;;;;;5.80;3.30;;;17.60;1.00;;;;;;4956329;28;20466;-59
2023/08/03 10:57:30;;;;;;;5.80;2.50;;;17.60;1.00;;;;;;4959175;28;20463;-59
2023/08/03 10:59:59;;;;;;;6.40;3.40;;;17.60;1.00;;;;;;4973117;28;20489;-60
2023/08/03 11:02:31;;;;;;;4.57;2.93;;;17.60;1.00;;;;;;4959058;28;20466;-58
2023/08/03 11:05:01;;;;;;;2.83;2.27;;;17.70;7.50;;;;;;4960371;28;20471;-59
2023/08/03 11:07:32;;;;;;;6.23;2.97;;;17.90;1.00;;;;;;4977241;28;20525;-59
2023/08/03 11:10:01;;;;;;;7.47;2.83;;;17.90;1.00;;;;;;4978478;28;20462;-58
2023/08/03 11:12:29;;;;;;;5.87;2.70;;;17.80;40.30;;;;;;4977721;28;20429;-59
2023/08/03 11:14:58;;;;;;;5.10;3.17;;;17.60;61.60;;;;;;4977477;28;20460;-65
2023/08/03 11:17:30;;;;;;;5.53;2.90;;;17.50;99.90;;;;;;4976027;28;20466;-58
2023/08/03 11:20:01;;;;;;;6.30;3.20;;;17.30;99.90;;;;;;4976546;28;20498;-57
2023/08/03 11:22:30;;;;;;;6.07;3.20;;;17.10;1.00;;;;;;4976364;28;20466;-59
2023/08/03 11:24:58;;;;;;;4.93;3.03;;;17.20;1.00;;;;;;4976439;28;20576;-57
2023/08/03 11:27:26;;;;;;;4.53;3.50;;;17.10;1.00;;;;;;4976502;28;20458;-60
2023/08/03 11:29:55;;;;;;;3.80;2.37;;;17.00;1.00;;;;;;4961254;28;20489;-57
2023/08/03 11:32:23;;;;;;;8.17;3.37;;;17.00;1.00;;;;;;4958490;28;20558;-58
2023/08/03 11:34:58;;;;;;;6.07;3.10;;;17.00;99.90;;;;;;4958619;28;20580;-58
2023/08/03 11:37:29;;;;;;;5.37;3.07;;;16.80;1.00;;;;;;4958122;29;20513;-62
2023/08/03 11:39:56;;;;;;;4.10;3.00;;;16.80;99.90;;;;;;4958464;29;20936;-60
2023/08/03 11:42:26;;;;;;;4.20;3.00;;;16.80;1.00;;;;;;4961947;28;20438;-62
2023/08/03 11:44:53;;;;;;;6.87;3.43;;;16.90;1.00;;;;;;4962859;29;20458;-57
2023/08/03 11:47:20;;;;;;;4.63;3.80;;;17.00;99.90;;;;;;4962762;28;20458;-58
2023/08/03 11:49:48;;;;;;;4.60;3.67;;;16.80;1.00;;;;;;4962999;28;20728;-58
2023/08/03 11:52:20;;;;;;;4.50;3.43;;;16.70;59.00;;;;;;4972264;28;20469;-57
2023/08/03 11:54:48;;;;;;;6.03;4.40;;;16.70;99.90;;;;;;4965101;28;20493;-60
2023/08/03 12:00:02;;;;;;;7.67;4.20;;;17.20;99.90;;;;;;4960919;29;20464;-67
2023/08/03 12:02:38;;;;;;;6.37;3.80;;;17.70;99.90;;;;;;4963725;29;20513;-64
2023/08/03 12:05:06;;;;;;;6.37;4.97;;;18.10;99.90;;;;;;4966443;29;20516;-68
2023/08/03 12:07:34;;;;;;;13.80;4.30;;;18.20;99.90;;;;;;4969651;28;20462;-66
2023/08/03 12:10:09;;;;;;;5.40;3.80;;;18.40;99.90;;;;;;4968559;29;20469;-65
2023/08/03 12:12:36;;;;;;;5.93;3.77;;;18.40;1.00;;;;;;4967850;29;20462;-65
2023/08/03 12:15:04;;;;;;;4.97;3.67;;;18.30;1.00;;;;;;4969480;29;20505;-66
2023/08/03 12:17:31;;;;;;;9.80;3.87;;;18.30;1.00;;;;;;4966941;28;20517;-67
2023/08/03 12:19:58;;;;;;;5.47;3.60;;;18.30;1.00;;;;;;4968722;28;20470;-66
2023/08/03 12:22:25;;;;;;;6.43;3.10;;;18.20;99.90;;;;;;4968035;29;20549;-66
2023/08/03 12:24:54;;;;;;;5.53;3.67;;;18.10;99.90;;;;;;4969107;29;20469;-65
2023/08/03 12:27:21;;;;;;;5.40;3.40;;;18.00;99.90;;;;;;4969518;28;20794;-64
2023/08/03 12:29:48;;;;;;;5.17;4.03;;;17.90;99.90;;;;;;4968469;28;20479;-64
2023/08/03 12:32:15;;;;;;;5.03;3.40;;;18.00;99.90;;;;;;4968646;28;20532;-65
2023/08/03 12:34:42;;;;;;;4.83;3.37;;;18.00;99.90;;;;;;4966676;28;20815;-64
2023/08/03 12:37:09;;;;;;;6.67;3.27;;;18.20;99.90;;;;;;4971906;28;20732;-66
2023/08/03 12:39:36;;;;;;;11.70;4.17;;;18.40;99.90;;;;;;4988733;28;20469;-65
2023/08/03 12:42:08;;;;;;;6.40;4.23;;;18.30;99.90;;;;;;4979730;28;20818;-65
2023/08/03 12:44:36;;;;;;;5.80;3.80;;;18.30;99.90;;;;;;4980423;28;20537;-66
2023/08/03 12:47:03;;;;;;;7.80;4.13;;;18.30;99.90;;;;;;4986351;28;20509;-64
2023/08/03 12:49:35;;;;;;;10.73;3.67;;;18.30;99.90;;;;;;4985535;28;20481;-65
2023/08/03 12:52:03;;;;;;;5.27;3.20;;;18.10;99.90;;;;;;4987426;28;20498;-65
2023/08/03 12:54:30;;;;;;;5.70;3.70;;;18.00;99.90;;;;;;4969340;28;20929;-65
2023/08/03 12:56:57;;;;;;;5.00;3.43;;;17.80;99.90;;;;;;4961324;28;20554;-65